KEAMOKU RAWS NEAR CAPTAIN COOK 12E HADS current weather conditions

sailwx.info

Wind from 334 at 8 knots gusting 17

Air temperature 11.1° C
Dewpoint 10.3° C

Last reported at 2017-Oct-17 12:34 UTC.
Time now 2017-Oct-17 13:29 UTC

Location: N 19°28' W 155°22'.
View on Google Maps.

See reports from other nearby stations

  
Tides and Currents Weather Stations Pressure Air Temp Water Temp Dewpoint Dewpoint Depression Visibility Wind Speed Wind Dir Waves Ship Positions
date/time (UTC)wind fromknots sea level pressurealtimeterstation pressurevisibilityair tempwater tempwave heightnotes
2017-Oct-17 12:34 334 8 gusting 17 11.1
2017-Oct-17 11:34 340 10 gusting 20 11.7
2017-Oct-17 10:34 347 10 gusting 23 11.1
2017-Oct-17 09:34 349 10 gusting 23 11.7
2017-Oct-17 08:34 349 12 gusting 25 11.7
2017-Oct-17 07:34 336 8 gusting 19 11.7
2017-Oct-17 06:34 336 10 gusting 20 12.2
2017-Oct-17 05:34 327 9 gusting 19 11.7
2017-Oct-17 04:34 324 10 gusting 18 12.2
2017-Oct-17 03:34 331 8 gusting 19 12.2
2017-Oct-17 02:34 352 9 gusting 21 13.3
2017-Oct-17 01:34 344 9 gusting 21 17.8
2017-Oct-17 00:34 358 11 gusting 23 16.7
2017-Oct-16 23:34 356 12 gusting 26 17.8
2017-Oct-16 22:34 359 13 gusting 22 17.8
2017-Oct-16 21:34 356 12 gusting 26 20.0
2017-Oct-16 20:34 341 13 gusting 27 17.8
2017-Oct-16 19:34 339 12 gusting 26 15.6
2017-Oct-16 18:34 333 11 gusting 20 13.9
2017-Oct-16 17:34 355 11 gusting 20 11.7
2017-Oct-16 16:34 358 8 gusting 20 11.1
2017-Oct-16 15:34 006 7 gusting 16 11.7
2017-Oct-16 14:34 351 8 gusting 19 11.7
2017-Oct-16 13:34 336 9 gusting 19 11.1
2017-Oct-16 12:34 341 9 gusting 21 11.1
2017-Oct-16 11:34 330 10 gusting 20 11.7
2017-Oct-16 10:34 341 8 gusting 20 11.7
2017-Oct-16 09:34 344 9 gusting 19 11.7
2017-Oct-16 08:34 338 9 gusting 19 11.7
2017-Oct-16 07:34 328 9 gusting 20 12.2
2017-Oct-16 06:34 335 8 gusting 20 12.8
2017-Oct-16 05:34 336 11 gusting 21 12.8
2017-Oct-16 04:34 350 9 gusting 19 12.8
2017-Oct-16 03:34 338 10 gusting 20 13.9
2017-Oct-16 02:34 329 9 gusting 21 15.0
2017-Oct-16 01:34 348 9 gusting 20 17.2
2017-Oct-16 00:34 354 11 gusting 25 18.3
2017-Oct-15 23:34 340 12 gusting 26 17.8
2017-Oct-15 22:34 344 12 gusting 23 17.8
2017-Oct-15 21:34 002 10 gusting 20 16.1
2017-Oct-15 20:34 008 9 gusting 17 17.2
2017-Oct-15 19:34 003 9 gusting 14 16.1
2017-Oct-15 18:34 008 6 gusting 11 15.0
2017-Oct-15 17:34 357 5 gusting 13 14.4
2017-Oct-15 16:34 007 6 gusting 11 13.9
2017-Oct-15 15:34 356 2 gusting 8 13.9
2017-Oct-15 14:34 026 4 gusting 12 13.9
2017-Oct-15 13:34 005 3 gusting 9 14.4